sensor_id;sensor_type;location;lat;lon;timestamp;P1;durP1;ratioP1;P2;durP2;ratioP2
23302;SDS011;11820;48.738;9.092;2022-12-18T00:00:29;41.37;;;26.57;;
23302;SDS011;11820;48.738;9.092;2022-12-18T00:02:55;44.40;;;27.70;;
23302;SDS011;11820;48.738;9.092;2022-12-18T00:05:20;46.23;;;28.57;;
23302;SDS011;11820;48.738;9.092;2022-12-18T00:07:46;42.87;;;26.27;;
23302;SDS011;11820;48.738;9.092;2022-12-18T00:10:11;45.33;;;26.40;;
23302;SDS011;11820;48.738;9.092;2022-12-18T00:12:36;42.50;;;26.07;;
23302;SDS011;11820;48.738;9.092;2022-12-18T00:15:02;49.07;;;27.40;;
23302;SDS011;11820;48.738;9.092;2022-12-18T00:17:27;44.37;;;29.03;;
23302;SDS011;11820;48.738;9.092;2022-12-18T00:19:53;47.80;;;28.03;;
23302;SDS011;11820;48.738;9.092;2022-12-18T00:22:18;43.20;;;27.60;;
23302;SDS011;11820;48.738;9.092;2022-12-18T00:24:43;45.23;;;27.63;;
23302;SDS011;11820;48.738;9.092;2022-12-18T00:27:09;43.07;;;28.33;;
23302;SDS011;11820;48.738;9.092;2022-12-18T00:29:34;48.13;;;27.83;;
23302;SDS011;11820;48.738;9.092;2022-12-18T00:31:59;41.60;;;25.07;;
23302;SDS011;11820;48.738;9.092;2022-12-18T00:34:25;41.30;;;25.80;;
23302;SDS011;11820;48.738;9.092;2022-12-18T00:36:50;48.90;;;28.77;;
23302;SDS011;11820;48.738;9.092;2022-12-18T00:39:15;44.30;;;28.03;;
23302;SDS011;11820;48.738;9.092;2022-12-18T00:41:41;47.17;;;28.50;;
23302;SDS011;11820;48.738;9.092;2022-12-18T00:44:25;47.00;;;29.27;;
23302;SDS011;11820;48.738;9.092;2022-12-18T00:46:50;50.43;;;28.17;;
23302;SDS011;11820;48.738;9.092;2022-12-18T00:49:16;45.23;;;28.33;;
23302;SDS011;11820;48.738;9.092;2022-12-18T00:51:42;41.77;;;27.37;;
23302;SDS011;11820;48.738;9.092;2022-12-18T00:54:08;45.53;;;26.40;;
23302;SDS011;11820;48.738;9.092;2022-12-18T00:56:35;51.63;;;30.90;;
23302;SDS011;11820;48.738;9.092;2022-12-18T00:59:02;45.13;;;28.90;;
23302;SDS011;11820;48.738;9.092;2022-12-18T01:01:27;45.10;;;26.90;;
23302;SDS011;11820;48.738;9.092;2022-12-18T01:03:52;47.40;;;29.40;;
23302;SDS011;11820;48.738;9.092;2022-12-18T01:06:18;51.13;;;30.10;;
23302;SDS011;11820;48.738;9.092;2022-12-18T01:08:43;48.03;;;29.33;;
23302;SDS011;11820;48.738;9.092;2022-12-18T01:11:10;44.87;;;27.13;;
23302;SDS011;11820;48.738;9.092;2022-12-18T01:13:38;45.17;;;28.60;;
23302;SDS011;11820;48.738;9.092;2022-12-18T01:16:03;44.10;;;28.37;;
23302;SDS011;11820;48.738;9.092;2022-12-18T01:18:29;46.73;;;28.27;;
23302;SDS011;11820;48.738;9.092;2022-12-18T01:20:54;49.00;;;28.37;;
23302;SDS011;11820;48.738;9.092;2022-12-18T01:23:20;48.23;;;29.00;;
23302;SDS011;11820;48.738;9.092;2022-12-18T01:25:45;45.27;;;28.03;;
23302;SDS011;11820;48.738;9.092;2022-12-18T01:28:10;42.07;;;27.50;;
23302;SDS011;11820;48.738;9.092;2022-12-18T01:30:36;43.53;;;27.87;;
23302;SDS011;11820;48.738;9.092;2022-12-18T01:33:03;46.37;;;28.20;;
23302;SDS011;11820;48.738;9.092;2022-12-18T01:35:29;42.40;;;27.60;;
23302;SDS011;11820;48.738;9.092;2022-12-18T01:37:54;46.43;;;28.93;;
23302;SDS011;11820;48.738;9.092;2022-12-18T01:40:20;42.47;;;26.67;;
23302;SDS011;11820;48.738;9.092;2022-12-18T01:42:50;45.43;;;26.97;;
23302;SDS011;11820;48.738;9.092;2022-12-18T01:45:29;41.47;;;28.27;;
23302;SDS011;11820;48.738;9.092;2022-12-18T01:48:14;42.10;;;27.00;;
23302;SDS011;11820;48.738;9.092;2022-12-18T01:50:40;43.23;;;26.80;;
23302;SDS011;11820;48.738;9.092;2022-12-18T01:53:12;44.80;;;27.40;;
23302;SDS011;11820;48.738;9.092;2022-12-18T01:55:53;41.97;;;26.77;;
23302;SDS011;11820;48.738;9.092;2022-12-18T01:58:26;43.27;;;25.47;;
23302;SDS011;11820;48.738;9.092;2022-12-18T02:01:05;41.43;;;26.37;;
23302;SDS011;11820;48.738;9.092;2022-12-18T02:03:31;42.20;;;26.07;;
23302;SDS011;11820;48.738;9.092;2022-12-18T02:06:01;42.27;;;25.27;;
23302;SDS011;11820;48.738;9.092;2022-12-18T02:11:18;40.23;;;24.23;;
23302;SDS011;11820;48.738;9.092;2022-12-18T02:18:54;39.47;;;23.97;;
23302;SDS011;11820;48.738;9.092;2022-12-18T02:21:35;43.30;;;24.17;;
23302;SDS011;11820;48.738;9.092;2022-12-18T02:27:03;37.70;;;24.43;;
23302;SDS011;11820;48.738;9.092;2022-12-18T02:29:33;39.90;;;24.27;;
23302;SDS011;11820;48.738;9.092;2022-12-18T02:32:10;34.97;;;22.30;;
23302;SDS011;11820;48.738;9.092;2022-12-18T02:34:39;36.53;;;22.43;;
23302;SDS011;11820;48.738;9.092;2022-12-18T02:37:06;37.10;;;22.50;;
23302;SDS011;11820;48.738;9.092;2022-12-18T02:39:36;34.97;;;20.70;;
23302;SDS011;11820;48.738;9.092;2022-12-18T02:42:03;36.93;;;21.70;;
23302;SDS011;11820;48.738;9.092;2022-12-18T02:44:33;34.27;;;21.77;;
23302;SDS011;11820;48.738;9.092;2022-12-18T02:46:59;35.40;;;21.03;;
23302;SDS011;11820;48.738;9.092;2022-12-18T02:49:40;38.17;;;21.93;;
23302;SDS011;11820;48.738;9.092;2022-12-18T02:59:56;35.73;;;21.13;;
23302;SDS011;11820;48.738;9.092;2022-12-18T03:02:58;33.60;;;21.30;;
23302;SDS011;11820;48.738;9.092;2022-12-18T03:05:37;33.40;;;21.07;;
23302;SDS011;11820;48.738;9.092;2022-12-18T03:08:08;37.20;;;19.77;;
23302;SDS011;11820;48.738;9.092;2022-12-18T03:10:40;31.60;;;19.90;;
23302;SDS011;11820;48.738;9.092;2022-12-18T03:13:12;35.73;;;22.00;;
23302;SDS011;11820;48.738;9.092;2022-12-18T03:15:42;28.80;;;20.00;;
23302;SDS011;11820;48.738;9.092;2022-12-18T03:18:20;33.90;;;22.77;;
23302;SDS011;11820;48.738;9.092;2022-12-18T03:20:49;34.83;;;20.27;;
23302;SDS011;11820;48.738;9.092;2022-12-18T03:23:18;33.67;;;20.33;;
23302;SDS011;11820;48.738;9.092;2022-12-18T03:25:47;32.33;;;20.93;;
23302;SDS011;11820;48.738;9.092;2022-12-18T03:28:21;34.27;;;19.90;;
23302;SDS011;11820;48.738;9.092;2022-12-18T03:30:49;34.77;;;20.80;;
23302;SDS011;11820;48.738;9.092;2022-12-18T03:33:19;29.83;;;20.00;;
23302;SDS011;11820;48.738;9.092;2022-12-18T03:35:50;33.40;;;19.70;;
23302;SDS011;11820;48.738;9.092;2022-12-18T03:38:16;30.70;;;18.90;;
23302;SDS011;11820;48.738;9.092;2022-12-18T03:40:49;28.00;;;19.30;;
23302;SDS011;11820;48.738;9.092;2022-12-18T03:43:28;29.93;;;19.77;;
23302;SDS011;11820;48.738;9.092;2022-12-18T03:46:26;30.57;;;19.80;;
23302;SDS011;11820;48.738;9.092;2022-12-18T03:48:59;27.80;;;18.67;;
23302;SDS011;11820;48.738;9.092;2022-12-18T03:51:37;30.57;;;18.77;;
23302;SDS011;11820;48.738;9.092;2022-12-18T03:54:08;31.73;;;20.47;;
23302;SDS011;11820;48.738;9.092;2022-12-18T03:56:38;27.23;;;17.57;;
23302;SDS011;11820;48.738;9.092;2022-12-18T03:59:08;29.43;;;19.07;;
23302;SDS011;11820;48.738;9.092;2022-12-18T04:01:36;29.07;;;17.77;;
23302;SDS011;11820;48.738;9.092;2022-12-18T04:04:06;26.77;;;18.33;;
23302;SDS011;11820;48.738;9.092;2022-12-18T04:06:33;26.60;;;17.37;;
23302;SDS011;11820;48.738;9.092;2022-12-18T04:08:59;26.83;;;17.93;;
23302;SDS011;11820;48.738;9.092;2022-12-18T04:11:25;30.17;;;19.20;;
23302;SDS011;11820;48.738;9.092;2022-12-18T04:13:52;25.33;;;17.30;;
23302;SDS011;11820;48.738;9.092;2022-12-18T04:16:20;26.20;;;17.43;;
23302;SDS011;11820;48.738;9.092;2022-12-18T04:18:45;25.17;;;16.60;;
23302;SDS011;11820;48.738;9.092;2022-12-18T04:21:11;27.60;;;17.87;;
23302;SDS011;11820;48.738;9.092;2022-12-18T04:23:36;28.70;;;17.73;;
23302;SDS011;11820;48.738;9.092;2022-12-18T04:26:01;24.33;;;16.43;;
23302;SDS011;11820;48.738;9.092;2022-12-18T04:28:27;26.37;;;17.13;;
23302;SDS011;11820;48.738;9.092;2022-12-18T04:30:52;25.23;;;17.20;;
23302;SDS011;11820;48.738;9.092;2022-12-18T04:33:17;28.53;;;17.57;;
23302;SDS011;11820;48.738;9.092;2022-12-18T04:35:43;32.30;;;20.10;;
23302;SDS011;11820;48.738;9.092;2022-12-18T04:38:08;31.23;;;20.37;;
23302;SDS011;11820;48.738;9.092;2022-12-18T04:40:35;28.63;;;18.57;;
23302;SDS011;11820;48.738;9.092;2022-12-18T04:43:01;27.27;;;18.07;;
23302;SDS011;11820;48.738;9.092;2022-12-18T04:45:27;29.53;;;19.17;;
23302;SDS011;11820;48.738;9.092;2022-12-18T04:47:52;25.73;;;17.73;;
23302;SDS011;11820;48.738;9.092;2022-12-18T04:50:17;29.60;;;17.43;;
23302;SDS011;11820;48.738;9.092;2022-12-18T04:52:42;25.40;;;17.77;;
23302;SDS011;11820;48.738;9.092;2022-12-18T04:55:08;27.93;;;18.37;;
23302;SDS011;11820;48.738;9.092;2022-12-18T04:57:33;26.13;;;16.83;;
23302;SDS011;11820;48.738;9.092;2022-12-18T04:59:58;29.93;;;18.33;;
23302;SDS011;11820;48.738;9.092;2022-12-18T05:02:24;28.17;;;17.90;;
23302;SDS011;11820;48.738;9.092;2022-12-18T05:04:49;29.27;;;17.60;;
23302;SDS011;11820;48.738;9.092;2022-12-18T05:07:14;29.37;;;17.87;;
23302;SDS011;11820;48.738;9.092;2022-12-18T05:09:40;27.70;;;18.63;;
23302;SDS011;11820;48.738;9.092;2022-12-18T05:12:05;28.03;;;18.30;;
23302;SDS011;11820;48.738;9.092;2022-12-18T05:14:31;30.33;;;18.03;;
23302;SDS011;11820;48.738;9.092;2022-12-18T05:16:56;27.50;;;18.47;;
23302;SDS011;11820;48.738;9.092;2022-12-18T05:19:21;24.47;;;17.10;;
23302;SDS011;11820;48.738;9.092;2022-12-18T05:21:47;31.03;;;18.43;;
23302;SDS011;11820;48.738;9.092;2022-12-18T05:24:12;28.20;;;18.33;;
23302;SDS011;11820;48.738;9.092;2022-12-18T05:26:37;27.67;;;16.60;;
23302;SDS011;11820;48.738;9.092;2022-12-18T05:29:03;27.37;;;17.10;;
23302;SDS011;11820;48.738;9.092;2022-12-18T05:31:28;29.87;;;17.93;;
23302;SDS011;11820;48.738;9.092;2022-12-18T05:33:53;28.17;;;17.53;;
23302;SDS011;11820;48.738;9.092;2022-12-18T05:36:19;25.83;;;17.73;;
23302;SDS011;11820;48.738;9.092;2022-12-18T05:38:44;26.90;;;17.20;;
23302;SDS011;11820;48.738;9.092;2022-12-18T05:41:10;26.67;;;17.70;;
23302;SDS011;11820;48.738;9.092;2022-12-18T05:43:35;26.40;;;17.20;;
23302;SDS011;11820;48.738;9.092;2022-12-18T05:46:06;35.37;;;19.90;;
23302;SDS011;11820;48.738;9.092;2022-12-18T05:48:32;30.03;;;17.93;;
23302;SDS011;11820;48.738;9.092;2022-12-18T05:51:03;29.40;;;18.60;;
23302;SDS011;11820;48.738;9.092;2022-12-18T05:53:33;25.37;;;17.50;;
23302;SDS011;11820;48.738;9.092;2022-12-18T05:56:00;26.33;;;17.60;;
23302;SDS011;11820;48.738;9.092;2022-12-18T05:58:27;29.23;;;18.30;;
23302;SDS011;11820;48.738;9.092;2022-12-18T06:00:52;27.70;;;17.00;;
23302;SDS011;11820;48.738;9.092;2022-12-18T06:03:18;27.33;;;17.67;;
23302;SDS011;11820;48.738;9.092;2022-12-18T06:05:44;28.20;;;17.80;;
23302;SDS011;11820;48.738;9.092;2022-12-18T06:08:10;26.50;;;17.30;;
23302;SDS011;11820;48.738;9.092;2022-12-18T06:10:36;29.10;;;17.90;;
23302;SDS011;11820;48.738;9.092;2022-12-18T06:13:02;26.43;;;18.07;;
23302;SDS011;11820;48.738;9.092;2022-12-18T06:15:28;25.60;;;16.60;;
23302;SDS011;11820;48.738;9.092;2022-12-18T06:17:53;26.30;;;16.20;;
23302;SDS011;11820;48.738;9.092;2022-12-18T06:20:19;28.27;;;17.50;;
23302;SDS011;11820;48.738;9.092;2022-12-18T06:22:44;30.57;;;18.97;;
23302;SDS011;11820;48.738;9.092;2022-12-18T06:25:10;28.83;;;17.87;;
23302;SDS011;11820;48.738;9.092;2022-12-18T06:27:35;24.90;;;16.90;;
23302;SDS011;11820;48.738;9.092;2022-12-18T06:30:01;32.27;;;19.50;;
23302;SDS011;11820;48.738;9.092;2022-12-18T06:32:26;29.97;;;18.33;;
23302;SDS011;11820;48.738;9.092;2022-12-18T06:34:52;31.47;;;18.90;;
23302;SDS011;11820;48.738;9.092;2022-12-18T06:37:18;31.27;;;18.60;;
23302;SDS011;11820;48.738;9.092;2022-12-18T06:39:44;29.83;;;18.03;;
23302;SDS011;11820;48.738;9.092;2022-12-18T06:42:09;28.33;;;17.13;;
23302;SDS011;11820;48.738;9.092;2022-12-18T06:44:35;32.60;;;19.83;;
23302;SDS011;11820;48.738;9.092;2022-12-18T06:47:00;31.10;;;19.03;;
23302;SDS011;11820;48.738;9.092;2022-12-18T06:49:25;26.47;;;17.17;;
23302;SDS011;11820;48.738;9.092;2022-12-18T06:51:51;28.20;;;19.13;;
23302;SDS011;11820;48.738;9.092;2022-12-18T06:54:17;28.70;;;17.87;;
23302;SDS011;11820;48.738;9.092;2022-12-18T06:56:44;29.67;;;18.77;;
23302;SDS011;11820;48.738;9.092;2022-12-18T06:59:10;29.20;;;18.23;;
23302;SDS011;11820;48.738;9.092;2022-12-18T07:01:35;30.17;;;18.53;;
23302;SDS011;11820;48.738;9.092;2022-12-18T07:04:00;28.13;;;18.10;;
23302;SDS011;11820;48.738;9.092;2022-12-18T07:06:26;34.67;;;18.30;;
23302;SDS011;11820;48.738;9.092;2022-12-18T07:08:51;32.77;;;18.07;;
23302;SDS011;11820;48.738;9.092;2022-12-18T07:11:18;33.00;;;19.07;;
23302;SDS011;11820;48.738;9.092;2022-12-18T07:13:44;31.60;;;17.37;;
23302;SDS011;11820;48.738;9.092;2022-12-18T07:16:14;26.00;;;17.60;;
23302;SDS011;11820;48.738;9.092;2022-12-18T07:18:41;29.93;;;18.57;;
23302;SDS011;11820;48.738;9.092;2022-12-18T07:21:07;31.37;;;18.53;;
23302;SDS011;11820;48.738;9.092;2022-12-18T07:23:37;34.40;;;19.07;;
23302;SDS011;11820;48.738;9.092;2022-12-18T07:26:07;28.90;;;17.83;;
23302;SDS011;11820;48.738;9.092;2022-12-18T07:28:34;26.50;;;17.40;;
23302;SDS011;11820;48.738;9.092;2022-12-18T07:31:03;30.93;;;17.93;;
23302;SDS011;11820;48.738;9.092;2022-12-18T07:33:34;34.00;;;18.47;;
23302;SDS011;11820;48.738;9.092;2022-12-18T07:36:00;30.03;;;17.77;;
23302;SDS011;11820;48.738;9.092;2022-12-18T07:38:30;34.30;;;19.63;;
23302;SDS011;11820;48.738;9.092;2022-12-18T07:41:09;28.47;;;17.90;;
23302;SDS011;11820;48.738;9.092;2022-12-18T07:43:36;29.20;;;19.00;;
23302;SDS011;11820;48.738;9.092;2022-12-18T07:46:02;31.87;;;19.03;;
23302;SDS011;11820;48.738;9.092;2022-12-18T07:48:28;32.80;;;18.97;;
23302;SDS011;11820;48.738;9.092;2022-12-18T07:50:57;29.00;;;19.63;;
23302;SDS011;11820;48.738;9.092;2022-12-18T07:53:23;28.77;;;19.33;;
23302;SDS011;11820;48.738;9.092;2022-12-18T07:55:49;33.07;;;19.13;;
23302;SDS011;11820;48.738;9.092;2022-12-18T07:58:14;32.27;;;20.47;;
23302;SDS011;11820;48.738;9.092;2022-12-18T08:00:39;31.30;;;19.33;;
23302;SDS011;11820;48.738;9.092;2022-12-18T08:03:05;32.97;;;20.30;;
23302;SDS011;11820;48.738;9.092;2022-12-18T08:05:30;30.90;;;20.10;;
23302;SDS011;11820;48.738;9.092;2022-12-18T08:07:55;35.53;;;21.73;;
23302;SDS011;11820;48.738;9.092;2022-12-18T08:10:21;31.77;;;20.47;;
23302;SDS011;11820;48.738;9.092;2022-12-18T08:12:50;33.30;;;19.87;;
23302;SDS011;11820;48.738;9.092;2022-12-18T08:15:16;30.07;;;17.10;;
23302;SDS011;11820;48.738;9.092;2022-12-18T08:17:42;29.60;;;19.10;;
23302;SDS011;11820;48.738;9.092;2022-12-18T08:20:07;33.27;;;19.80;;
23302;SDS011;11820;48.738;9.092;2022-12-18T08:22:34;32.00;;;20.40;;
23302;SDS011;11820;48.738;9.092;2022-12-18T08:25:00;33.10;;;21.33;;
23302;SDS011;11820;48.738;9.092;2022-12-18T08:27:26;34.20;;;19.90;;
23302;SDS011;11820;48.738;9.092;2022-12-18T08:29:51;34.60;;;20.07;;
23302;SDS011;11820;48.738;9.092;2022-12-18T08:32:16;35.40;;;22.07;;
23302;SDS011;11820;48.738;9.092;2022-12-18T08:34:42;33.27;;;20.90;;
23302;SDS011;11820;48.738;9.092;2022-12-18T08:37:07;30.73;;;19.20;;
23302;SDS011;11820;48.738;9.092;2022-12-18T08:39:32;28.83;;;20.20;;
23302;SDS011;11820;48.738;9.092;2022-12-18T08:41:59;31.33;;;19.80;;
23302;SDS011;11820;48.738;9.092;2022-12-18T08:44:43;32.40;;;20.00;;
23302;SDS011;11820;48.738;9.092;2022-12-18T08:47:08;31.20;;;19.23;;
23302;SDS011;11820;48.738;9.092;2022-12-18T08:49:34;33.47;;;20.57;;
23302;SDS011;11820;48.738;9.092;2022-12-18T08:52:00;33.37;;;20.17;;
23302;SDS011;11820;48.738;9.092;2022-12-18T08:54:27;31.60;;;19.17;;
23302;SDS011;11820;48.738;9.092;2022-12-18T08:56:53;32.87;;;20.77;;
23302;SDS011;11820;48.738;9.092;2022-12-18T08:59:18;34.10;;;20.20;;
23302;SDS011;11820;48.738;9.092;2022-12-18T09:01:44;32.80;;;19.77;;
23302;SDS011;11820;48.738;9.092;2022-12-18T09:04:10;34.17;;;21.50;;
23302;SDS011;11820;48.738;9.092;2022-12-18T09:06:35;33.37;;;20.83;;
23302;SDS011;11820;48.738;9.092;2022-12-18T09:09:02;33.37;;;21.93;;
23302;SDS011;11820;48.738;9.092;2022-12-18T09:11:28;32.80;;;20.33;;
23302;SDS011;11820;48.738;9.092;2022-12-18T09:13:54;35.37;;;21.43;;
23302;SDS011;11820;48.738;9.092;2022-12-18T09:16:21;37.53;;;22.57;;
23302;SDS011;11820;48.738;9.092;2022-12-18T09:18:47;33.67;;;21.97;;
23302;SDS011;11820;48.738;9.092;2022-12-18T09:21:16;31.07;;;20.67;;
23302;SDS011;11820;48.738;9.092;2022-12-18T09:23:51;32.20;;;20.47;;
23302;SDS011;11820;48.738;9.092;2022-12-18T09:26:18;32.00;;;19.53;;
23302;SDS011;11820;48.738;9.092;2022-12-18T09:28:44;29.30;;;19.57;;
23302;SDS011;11820;48.738;9.092;2022-12-18T09:31:10;29.90;;;18.40;;
23302;SDS011;11820;48.738;9.092;2022-12-18T09:33:39;29.83;;;19.43;;
23302;SDS011;11820;48.738;9.092;2022-12-18T09:36:05;30.70;;;19.60;;
23302;SDS011;11820;48.738;9.092;2022-12-18T09:38:33;35.70;;;21.87;;
23302;SDS011;11820;48.738;9.092;2022-12-18T09:41:06;30.07;;;18.50;;
23302;SDS011;11820;48.738;9.092;2022-12-18T09:43:42;31.33;;;19.57;;
23302;SDS011;11820;48.738;9.092;2022-12-18T09:46:14;31.10;;;19.63;;
23302;SDS011;11820;48.738;9.092;2022-12-18T09:48:44;31.37;;;19.73;;
23302;SDS011;11820;48.738;9.092;2022-12-18T09:51:15;30.60;;;19.57;;
23302;SDS011;11820;48.738;9.092;2022-12-18T09:53:46;29.13;;;19.60;;
23302;SDS011;11820;48.738;9.092;2022-12-18T09:56:16;26.93;;;18.33;;
23302;SDS011;11820;48.738;9.092;2022-12-18T09:58:50;29.80;;;19.87;;
23302;SDS011;11820;48.738;9.092;2022-12-18T10:01:22;28.10;;;18.83;;
23302;SDS011;11820;48.738;9.092;2022-12-18T10:03:48;32.90;;;19.60;;
23302;SDS011;11820;48.738;9.092;2022-12-18T10:06:15;29.17;;;18.67;;
23302;SDS011;11820;48.738;9.092;2022-12-18T10:09:05;33.10;;;19.27;;
23302;SDS011;11820;48.738;9.092;2022-12-18T10:17:39;31.30;;;18.90;;
23302;SDS011;11820;48.738;9.092;2022-12-18T10:20:21;27.50;;;17.23;;
23302;SDS011;11820;48.738;9.092;2022-12-18T10:23:01;33.17;;;18.20;;
23302;SDS011;11820;48.738;9.092;2022-12-18T10:28:18;30.97;;;19.33;;
23302;SDS011;11820;48.738;9.092;2022-12-18T10:30:45;28.53;;;18.23;;
23302;SDS011;11820;48.738;9.092;2022-12-18T10:33:13;31.07;;;18.43;;
23302;SDS011;11820;48.738;9.092;2022-12-18T10:35:42;28.97;;;17.10;;
23302;SDS011;11820;48.738;9.092;2022-12-18T10:43:20;27.63;;;17.90;;
23302;SDS011;11820;48.738;9.092;2022-12-18T10:48:22;25.43;;;17.53;;
23302;SDS011;11820;48.738;9.092;2022-12-18T10:50:49;31.50;;;17.73;;
23302;SDS011;11820;48.738;9.092;2022-12-18T10:53:21;29.77;;;17.93;;
23302;SDS011;11820;48.738;9.092;2022-12-18T10:55:48;28.37;;;17.87;;
23302;SDS011;11820;48.738;9.092;2022-12-18T10:58:37;29.07;;;18.07;;
23302;SDS011;11820;48.738;9.092;2022-12-18T11:01:13;29.47;;;18.07;;
23302;SDS011;11820;48.738;9.092;2022-12-18T11:04:02;30.47;;;18.90;;
23302;SDS011;11820;48.738;9.092;2022-12-18T11:06:27;28.17;;;17.90;;
23302;SDS011;11820;48.738;9.092;2022-12-18T11:09:00;25.57;;;17.33;;
23302;SDS011;11820;48.738;9.092;2022-12-18T11:11:30;31.43;;;18.90;;
23302;SDS011;11820;48.738;9.092;2022-12-18T11:13:58;30.13;;;19.20;;
23302;SDS011;11820;48.738;9.092;2022-12-18T11:16:37;31.50;;;19.70;;
23302;SDS011;11820;48.738;9.092;2022-12-18T11:19:11;29.30;;;17.57;;
23302;SDS011;11820;48.738;9.092;2022-12-18T11:21:45;31.87;;;19.23;;
23302;SDS011;11820;48.738;9.092;2022-12-18T11:26:59;29.27;;;18.40;;
23302;SDS011;11820;48.738;9.092;2022-12-18T11:29:37;30.03;;;18.40;;
23302;SDS011;11820;48.738;9.092;2022-12-18T11:34:55;30.37;;;19.27;;
23302;SDS011;11820;48.738;9.092;2022-12-18T11:37:27;29.27;;;18.77;;
23302;SDS011;11820;48.738;9.092;2022-12-18T11:40:06;31.73;;;20.50;;
23302;SDS011;11820;48.738;9.092;2022-12-18T11:45:55;29.73;;;18.57;;
23302;SDS011;11820;48.738;9.092;2022-12-18T11:48:27;33.80;;;20.93;;
23302;SDS011;11820;48.738;9.092;2022-12-18T11:50:58;30.20;;;19.53;;
23302;SDS011;11820;48.738;9.092;2022-12-18T11:53:27;28.83;;;18.93;;
23302;SDS011;11820;48.738;9.092;2022-12-18T11:59:15;30.87;;;19.80;;
23302;SDS011;11820;48.738;9.092;2022-12-18T12:09:40;30.07;;;19.87;;
23302;SDS011;11820;48.738;9.092;2022-12-18T12:12:35;31.13;;;19.00;;
23302;SDS011;11820;48.738;9.092;2022-12-18T12:34:15;37.17;;;24.07;;
23302;SDS011;11820;48.738;9.092;2022-12-18T12:39:19;37.43;;;21.60;;
23302;SDS011;11820;48.738;9.092;2022-12-18T12:41:49;34.90;;;21.90;;
23302;SDS011;11820;48.738;9.092;2022-12-18T12:44:44;35.10;;;22.00;;
23302;SDS011;11820;48.738;9.092;2022-12-18T12:47:15;36.17;;;22.07;;
23302;SDS011;11820;48.738;9.092;2022-12-18T12:49:43;37.77;;;22.73;;
23302;SDS011;11820;48.738;9.092;2022-12-18T12:52:14;35.00;;;21.30;;
23302;SDS011;11820;48.738;9.092;2022-12-18T12:54:55;35.57;;;21.47;;
23302;SDS011;11820;48.738;9.092;2022-12-18T12:57:34;32.90;;;21.27;;
23302;SDS011;11820;48.738;9.092;2022-12-18T13:02:36;34.37;;;21.37;;
23302;SDS011;11820;48.738;9.092;2022-12-18T13:15:28;37.10;;;22.63;;
23302;SDS011;11820;48.738;9.092;2022-12-18T13:25:58;37.53;;;22.80;;
23302;SDS011;11820;48.738;9.092;2022-12-18T13:31:11;35.00;;;20.50;;
23302;SDS011;11820;48.738;9.092;2022-12-18T13:36:15;37.17;;;22.10;;
23302;SDS011;11820;48.738;9.092;2022-12-18T13:39:09;36.93;;;22.77;;
23302;SDS011;11820;48.738;9.092;2022-12-18T13:41:44;37.77;;;22.47;;
23302;SDS011;11820;48.738;9.092;2022-12-18T13:47:00;39.00;;;23.63;;
23302;SDS011;11820;48.738;9.092;2022-12-18T13:52:02;38.37;;;24.07;;
23302;SDS011;11820;48.738;9.092;2022-12-18T13:54:40;40.60;;;23.40;;
23302;SDS011;11820;48.738;9.092;2022-12-18T13:59:52;38.13;;;23.07;;
23302;SDS011;11820;48.738;9.092;2022-12-18T14:02:20;40.23;;;23.53;;
23302;SDS011;11820;48.738;9.092;2022-12-18T14:04:50;39.57;;;24.40;;
23302;SDS011;11820;48.738;9.092;2022-12-18T14:07:18;38.27;;;23.20;;
23302;SDS011;11820;48.738;9.092;2022-12-18T14:09:49;35.77;;;22.60;;
23302;SDS011;11820;48.738;9.092;2022-12-18T14:12:18;34.33;;;22.33;;
23302;SDS011;11820;48.738;9.092;2022-12-18T14:17:53;36.83;;;21.97;;
23302;SDS011;11820;48.738;9.092;2022-12-18T14:20:22;33.77;;;21.20;;
23302;SDS011;11820;48.738;9.092;2022-12-18T14:22:49;35.80;;;20.80;;
23302;SDS011;11820;48.738;9.092;2022-12-18T14:27:49;36.03;;;19.87;;
23302;SDS011;11820;48.738;9.092;2022-12-18T14:35:29;37.23;;;21.43;;
23302;SDS011;11820;48.738;9.092;2022-12-18T14:38:09;35.53;;;21.37;;
23302;SDS011;11820;48.738;9.092;2022-12-18T14:40:43;33.13;;;20.40;;
23302;SDS011;11820;48.738;9.092;2022-12-18T14:43:12;35.47;;;22.07;;
23302;SDS011;11820;48.738;9.092;2022-12-18T14:45:38;34.37;;;21.67;;
23302;SDS011;11820;48.738;9.092;2022-12-18T14:48:07;39.87;;;22.53;;
23302;SDS011;11820;48.738;9.092;2022-12-18T14:50:34;36.87;;;21.50;;
23302;SDS011;11820;48.738;9.092;2022-12-18T14:52:59;38.57;;;22.13;;
23302;SDS011;11820;48.738;9.092;2022-12-18T14:55:25;38.07;;;23.07;;
23302;SDS011;11820;48.738;9.092;2022-12-18T14:57:54;39.67;;;23.37;;
23302;SDS011;11820;48.738;9.092;2022-12-18T15:00:22;41.57;;;23.93;;
23302;SDS011;11820;48.738;9.092;2022-12-18T15:02:50;37.80;;;23.40;;
23302;SDS011;11820;48.738;9.092;2022-12-18T15:05:25;41.33;;;26.38;;
23302;SDS011;11820;48.738;9.092;2022-12-18T15:07:54;39.10;;;24.37;;
23302;SDS011;11820;48.738;9.092;2022-12-18T15:10:22;42.47;;;24.80;;
23302;SDS011;11820;48.738;9.092;2022-12-18T15:15:43;40.17;;;24.00;;
23302;SDS011;11820;48.738;9.092;2022-12-18T15:20:54;40.27;;;23.83;;
23302;SDS011;11820;48.738;9.092;2022-12-18T15:25:47;44.83;;;25.23;;
23302;SDS011;11820;48.738;9.092;2022-12-18T15:28:22;40.73;;;24.40;;
23302;SDS011;11820;48.738;9.092;2022-12-18T15:31:00;39.92;;;26.50;;
23302;SDS011;11820;48.738;9.092;2022-12-18T15:33:32;39.10;;;24.73;;
23302;SDS011;11820;48.738;9.092;2022-12-18T15:36:00;42.20;;;23.47;;
23302;SDS011;11820;48.738;9.092;2022-12-18T15:38:28;37.87;;;24.03;;
23302;SDS011;11820;48.738;9.092;2022-12-18T15:40:53;39.37;;;24.03;;
23302;SDS011;11820;48.738;9.092;2022-12-18T15:43:23;44.00;;;25.60;;
23302;SDS011;11820;48.738;9.092;2022-12-18T15:48:32;40.90;;;25.63;;
23302;SDS011;11820;48.738;9.092;2022-12-18T15:50:59;42.43;;;26.50;;
23302;SDS011;11820;48.738;9.092;2022-12-18T15:53:27;45.10;;;23.87;;
23302;SDS011;11820;48.738;9.092;2022-12-18T15:55:55;42.27;;;24.87;;
23302;SDS011;11820;48.738;9.092;2022-12-18T15:58:39;44.70;;;25.93;;
23302;SDS011;11820;48.738;9.092;2022-12-18T16:01:04;41.20;;;25.30;;
23302;SDS011;11820;48.738;9.092;2022-12-18T16:03:30;60.67;;;37.17;;
23302;SDS011;11820;48.738;9.092;2022-12-18T16:05:55;59.77;;;35.67;;
23302;SDS011;11820;48.738;9.092;2022-12-18T16:08:20;48.17;;;30.33;;
23302;SDS011;11820;48.738;9.092;2022-12-18T16:10:46;38.90;;;25.03;;
23302;SDS011;11820;48.738;9.092;2022-12-18T16:13:12;44.03;;;26.60;;
23302;SDS011;11820;48.738;9.092;2022-12-18T16:15:42;48.63;;;26.93;;
23302;SDS011;11820;48.738;9.092;2022-12-18T16:18:07;43.90;;;27.20;;
23302;SDS011;11820;48.738;9.092;2022-12-18T16:20:33;45.17;;;24.73;;
23302;SDS011;11820;48.738;9.092;2022-12-18T16:22:58;42.60;;;24.97;;
23302;SDS011;11820;48.738;9.092;2022-12-18T16:25:25;42.17;;;24.07;;
23302;SDS011;11820;48.738;9.092;2022-12-18T16:27:52;44.80;;;25.77;;
23302;SDS011;11820;48.738;9.092;2022-12-18T16:30:23;39.90;;;25.73;;
23302;SDS011;11820;48.738;9.092;2022-12-18T16:32:52;39.97;;;23.23;;
23302;SDS011;11820;48.738;9.092;2022-12-18T16:35:18;44.37;;;25.23;;
23302;SDS011;11820;48.738;9.092;2022-12-18T16:37:43;43.23;;;24.80;;
23302;SDS011;11820;48.738;9.092;2022-12-18T16:40:10;44.33;;;24.97;;
23302;SDS011;11820;48.738;9.092;2022-12-18T16:42:38;43.03;;;24.00;;